createdAt,value
2023-01-07T00:02:18.612Z,9.47
2023-01-07T00:04:44.969Z,9.46
2023-01-07T00:07:12.000Z,9.45
2023-01-07T00:09:38.416Z,9.44
2023-01-07T00:12:04.867Z,9.45
2023-01-07T00:14:31.176Z,9.46
2023-01-07T00:16:57.803Z,9.45
2023-01-07T00:19:24.116Z,9.46
2023-01-07T00:21:50.392Z,9.44
2023-01-07T00:24:18.353Z,9.43
2023-01-07T00:26:44.907Z,9.40
2023-01-07T00:29:11.270Z,9.37
2023-01-07T00:31:39.761Z,9.37
2023-01-07T00:34:07.013Z,9.37
2023-01-07T00:36:44.678Z,9.35
2023-01-07T00:39:16.816Z,9.35
2023-01-07T00:41:43.372Z,9.37
2023-01-07T00:44:09.865Z,9.37
2023-01-07T00:46:36.326Z,9.34
2023-01-07T00:49:02.696Z,9.35
2023-01-07T00:51:29.135Z,9.36
2023-01-07T00:53:55.417Z,9.40
2023-01-07T00:56:21.860Z,9.42
2023-01-07T00:58:48.298Z,9.42
2023-01-07T01:01:14.724Z,9.40
2023-01-07T01:03:41.175Z,9.36
2023-01-07T01:06:16.089Z,9.31
2023-01-07T01:08:44.616Z,9.32
2023-01-07T01:11:12.222Z,9.33
2023-01-07T01:16:13.980Z,9.37
2023-01-07T01:18:40.592Z,9.40
2023-01-07T01:21:09.451Z,9.44
2023-01-07T01:23:35.977Z,9.48
2023-01-07T01:26:04.373Z,9.50
2023-01-07T01:28:31.073Z,9.46
2023-01-07T01:30:57.642Z,9.44
2023-01-07T01:33:23.953Z,9.44
2023-01-07T01:35:50.297Z,9.45
2023-01-07T01:38:16.601Z,9.46
2023-01-07T01:40:42.909Z,9.47
2023-01-07T01:43:35.430Z,9.44
2023-01-07T01:46:05.880Z,9.38
2023-01-07T01:48:35.604Z,9.35
2023-01-07T01:51:03.309Z,9.34
2023-01-07T01:53:33.987Z,9.38
2023-01-07T01:56:10.716Z,9.39
2023-01-07T01:58:47.960Z,9.36
2023-01-07T02:01:14.876Z,9.36
2023-01-07T02:03:41.370Z,9.37
2023-01-07T02:06:18.264Z,9.37
2023-01-07T02:08:44.548Z,9.35
2023-01-07T02:11:41.293Z,9.36
2023-01-07T02:14:19.880Z,9.36
2023-01-07T02:17:07.692Z,9.36
2023-01-07T02:19:58.891Z,9.35
2023-01-07T02:22:49.954Z,9.36
2023-01-07T02:25:47.869Z,9.37
2023-01-07T02:28:14.091Z,9.34
2023-01-07T02:31:18.047Z,9.30
2023-01-07T02:34:03.226Z,9.19
2023-01-07T02:36:50.908Z,9.13
2023-01-07T02:39:36.130Z,9.14
2023-01-07T02:42:43.474Z,9.10
2023-01-07T02:45:17.982Z,9.11
2023-01-07T02:47:50.906Z,9.12
2023-01-07T02:50:17.226Z,9.15
2023-01-07T02:52:43.605Z,9.17
2023-01-07T02:55:26.327Z,9.17
2023-01-07T02:58:19.453Z,9.17
2023-01-07T03:01:01.436Z,9.17
2023-01-07T03:03:46.754Z,9.19
2023-01-07T03:06:34.655Z,9.18
2023-01-07T03:09:30.184Z,9.21
2023-01-07T03:12:10.286Z,9.25
2023-01-07T03:15:01.260Z,9.29
2023-01-07T03:17:36.905Z,9.26
2023-01-07T03:20:04.161Z,9.26
2023-01-07T03:22:33.279Z,9.24
2023-01-07T03:25:01.488Z,9.21
2023-01-07T03:27:33.001Z,9.19
2023-01-07T03:30:02.331Z,9.13
2023-01-07T03:32:41.954Z,9.08
2023-01-07T03:35:09.140Z,9.05
2023-01-07T03:37:35.437Z,9.02
2023-01-07T03:40:04.167Z,9.01
2023-01-07T03:42:30.995Z,9.05
2023-01-07T03:44:58.201Z,9.08
2023-01-07T03:47:27.063Z,9.03
2023-01-07T03:49:53.363Z,8.98
2023-01-07T03:52:19.678Z,9.00
2023-01-07T03:54:45.967Z,9.02
2023-01-07T03:57:12.376Z,9.05
2023-01-07T03:59:38.675Z,9.04
2023-01-07T04:02:05.125Z,9.02
2023-01-07T04:04:31.531Z,9.04
2023-01-07T04:06:57.932Z,9.05
2023-01-07T04:09:24.200Z,9.10
2023-01-07T04:11:50.597Z,9.09
2023-01-07T04:14:16.962Z,9.09
2023-01-07T04:16:43.399Z,9.08
2023-01-07T04:19:09.756Z,9.03
2023-01-07T04:21:36.201Z,8.99
2023-01-07T04:24:02.595Z,8.92
2023-01-07T04:26:28.897Z,8.91
2023-01-07T04:28:55.289Z,8.97
2023-01-07T04:31:21.596Z,8.97
2023-01-07T04:33:47.862Z,8.94
2023-01-07T04:36:14.244Z,8.95
2023-01-07T04:38:40.529Z,8.97
2023-01-07T04:41:06.940Z,8.97
2023-01-07T04:43:33.338Z,8.97
2023-01-07T04:45:59.640Z,8.91
2023-01-07T04:48:26.000Z,8.90
2023-01-07T04:50:52.379Z,8.90
2023-01-07T04:53:18.675Z,8.89
2023-01-07T04:55:46.396Z,8.91
2023-01-07T04:58:12.859Z,8.93
2023-01-07T05:00:39.163Z,8.95
2023-01-07T05:03:05.592Z,8.98
2023-01-07T05:05:31.987Z,8.99
2023-01-07T05:07:58.250Z,9.01
2023-01-07T05:10:24.695Z,9.01
2023-01-07T05:12:50.970Z,9.00
2023-01-07T05:15:17.255Z,9.01
2023-01-07T05:17:43.665Z,9.02
2023-01-07T05:20:10.335Z,8.97
2023-01-07T05:22:36.826Z,8.92
2023-01-07T05:25:03.562Z,8.91
2023-01-07T05:27:29.940Z,8.90
2023-01-07T05:29:56.216Z,8.91
2023-01-07T05:32:22.520Z,8.90
2023-01-07T05:34:48.902Z,8.90
2023-01-07T05:37:15.312Z,8.90
2023-01-07T05:39:41.596Z,8.91
2023-01-07T05:42:07.907Z,8.92
2023-01-07T05:44:34.297Z,8.93
2023-01-07T05:47:00.609Z,8.96
2023-01-07T05:49:27.015Z,8.98
2023-01-07T05:51:53.330Z,8.98
2023-01-07T05:54:19.599Z,8.97
2023-01-07T05:56:45.977Z,8.96
2023-01-07T05:59:12.367Z,8.88
2023-01-07T06:01:38.757Z,8.81
2023-01-07T06:04:05.178Z,8.74
2023-01-07T06:06:31.599Z,8.74
2023-01-07T06:08:57.903Z,8.70
2023-01-07T06:11:24.209Z,8.67
2023-01-07T06:13:50.583Z,8.65
2023-01-07T06:16:17.027Z,8.65
2023-01-07T06:18:43.390Z,8.68
2023-01-07T06:21:09.692Z,8.71
2023-01-07T06:23:36.066Z,8.70
2023-01-07T06:26:02.777Z,8.71
2023-01-07T06:28:29.067Z,8.70
2023-01-07T06:30:55.531Z,8.67
2023-01-07T06:33:22.021Z,8.65
2023-01-07T06:35:48.323Z,8.67
2023-01-07T06:38:14.666Z,8.69
2023-01-07T06:40:41.177Z,8.66
2023-01-07T06:43:07.473Z,8.64
2023-01-07T06:45:33.787Z,8.63
2023-01-07T06:48:00.140Z,8.65
2023-01-07T06:50:26.440Z,8.68
2023-01-07T06:52:52.914Z,8.71
2023-01-07T06:55:19.193Z,8.73
2023-01-07T06:57:45.624Z,8.75
2023-01-07T07:00:12.810Z,8.77
2023-01-07T07:02:39.172Z,8.69
2023-01-07T07:05:05.848Z,8.68
2023-01-07T07:07:32.241Z,8.69
2023-01-07T07:09:58.531Z,8.67
2023-01-07T07:12:24.853Z,8.64
2023-01-07T07:14:51.126Z,8.65
2023-01-07T07:17:17.522Z,8.67
2023-01-07T07:19:43.800Z,8.69
2023-01-07T07:22:10.228Z,8.74
2023-01-07T07:24:36.547Z,8.76
2023-01-07T07:27:02.863Z,8.73
2023-01-07T07:29:29.182Z,8.73
2023-01-07T07:31:55.458Z,8.75
2023-01-07T07:34:21.788Z,8.76
2023-01-07T07:36:48.071Z,8.79
2023-01-07T07:39:14.539Z,8.76
2023-01-07T07:41:40.953Z,8.75
2023-01-07T07:44:07.253Z,8.72
2023-01-07T07:46:33.595Z,8.69
2023-01-07T07:48:59.886Z,8.69
2023-01-07T07:51:26.355Z,8.70
2023-01-07T07:53:52.777Z,8.72
2023-01-07T07:56:19.161Z,8.72
2023-01-07T07:58:45.434Z,8.74
2023-01-07T08:01:11.897Z,8.76
2023-01-07T08:03:38.237Z,8.77
2023-01-07T08:06:04.859Z,8.79
2023-01-07T08:08:31.513Z,8.78
2023-01-07T08:10:57.825Z,8.83
2023-01-07T08:13:24.286Z,8.89
2023-01-07T08:15:50.627Z,8.92
2023-01-07T08:18:17.285Z,8.92
2023-01-07T08:20:43.570Z,8.94
2023-01-07T08:23:09.928Z,9.00
2023-01-07T08:25:36.576Z,9.08
2023-01-07T08:28:03.542Z,9.12
2023-01-07T08:30:30.676Z,9.13
2023-01-07T08:32:57.558Z,9.19
2023-01-07T08:35:23.932Z,9.21
2023-01-07T08:37:50.207Z,9.22
2023-01-07T08:40:16.580Z,9.22
2023-01-07T08:42:42.894Z,9.23
2023-01-07T08:45:10.709Z,9.26
2023-01-07T08:47:37.113Z,9.27
2023-01-07T08:50:04.604Z,9.25
2023-01-07T08:52:30.839Z,9.22
2023-01-07T08:54:57.131Z,9.23
2023-01-07T08:57:23.577Z,9.23
2023-01-07T08:59:49.878Z,9.25
2023-01-07T09:02:18.749Z,9.28
2023-01-07T09:04:45.524Z,9.34
2023-01-07T09:07:12.162Z,9.38
2023-01-07T09:09:38.739Z,9.43
2023-01-07T09:12:06.281Z,9.44
2023-01-07T09:14:32.496Z,9.42
2023-01-07T09:16:58.810Z,9.43
2023-01-07T09:19:25.110Z,9.47
2023-01-07T09:21:51.439Z,9.51
2023-01-07T09:24:17.948Z,9.57
2023-01-07T09:26:44.242Z,9.60
2023-01-07T09:29:10.756Z,9.63
2023-01-07T09:31:37.117Z,9.63
2023-01-07T09:34:03.447Z,9.63
2023-01-07T09:36:29.852Z,9.66
2023-01-07T09:38:56.129Z,9.70
2023-01-07T09:41:44.344Z,9.69
2023-01-07T09:44:33.245Z,9.67
2023-01-07T09:47:00.303Z,9.64
2023-01-07T09:49:30.459Z,9.66
2023-01-07T09:52:06.911Z,9.60
2023-01-07T09:54:36.295Z,9.67
2023-01-07T09:57:03.912Z,9.76
2023-01-07T09:59:30.632Z,9.84
2023-01-07T10:02:52.577Z,9.91
2023-01-07T10:05:39.261Z,9.96
2023-01-07T10:08:31.001Z,10.00
2023-01-07T10:10:58.613Z,10.01
2023-01-07T10:13:52.454Z,9.99
2023-01-07T10:16:21.556Z,9.92
2023-01-07T10:19:25.775Z,9.92
2023-01-07T10:21:57.402Z,9.92
2023-01-07T10:24:32.276Z,10.00
2023-01-07T10:27:03.178Z,10.11
2023-01-07T10:29:37.376Z,10.19
2023-01-07T10:32:13.265Z,10.28
2023-01-07T10:34:44.660Z,10.40
2023-01-07T10:37:21.567Z,10.54
2023-01-07T10:40:12.435Z,10.70
2023-01-07T10:42:55.046Z,10.81
2023-01-07T10:45:34.148Z,10.84
2023-01-07T10:48:18.925Z,10.78
2023-01-07T10:51:09.010Z,10.81
2023-01-07T10:53:57.670Z,10.88
2023-01-07T10:56:31.023Z,10.93
2023-01-07T10:58:58.038Z,10.94
2023-01-07T11:01:31.205Z,11.04
2023-01-07T11:03:59.249Z,11.16
2023-01-07T11:06:38.429Z,11.25
2023-01-07T11:09:09.078Z,11.33
2023-01-07T11:11:36.876Z,11.36
2023-01-07T11:14:11.501Z,11.44
2023-01-07T11:16:43.789Z,11.37
2023-01-07T11:19:12.051Z,11.43
2023-01-07T11:21:47.296Z,11.47
2023-01-07T11:24:19.544Z,11.57
2023-01-07T11:26:46.659Z,11.56
2023-01-07T11:29:35.007Z,11.56
2023-01-07T11:32:01.839Z,11.60
2023-01-07T11:34:53.506Z,11.49
2023-01-07T11:37:39.868Z,11.39
2023-01-07T11:40:28.150Z,11.40
2023-01-07T11:42:57.403Z,11.40
2023-01-07T11:45:37.010Z,11.50
2023-01-07T11:48:06.073Z,11.60
2023-01-07T11:50:41.531Z,11.75
2023-01-07T11:53:13.904Z,11.83
2023-01-07T11:55:58.016Z,11.85
2023-01-07T11:58:30.800Z,11.87
2023-01-07T12:01:24.391Z,11.90
2023-01-07T12:03:53.888Z,11.93
2023-01-07T12:06:27.033Z,12.01
2023-01-07T12:09:03.061Z,11.98
2023-01-07T12:11:39.903Z,11.93
2023-01-07T12:14:09.434Z,11.86
2023-01-07T12:16:36.189Z,11.78
2023-01-07T12:19:18.057Z,11.73
2023-01-07T12:21:54.297Z,11.73
2023-01-07T12:24:36.174Z,11.75
2023-01-07T12:27:22.532Z,11.74
2023-01-07T12:30:07.394Z,11.65
2023-01-07T12:33:01.615Z,11.68
2023-01-07T12:35:31.766Z,11.62
2023-01-07T12:38:11.294Z,11.55
2023-01-07T12:40:49.080Z,11.53
2023-01-07T12:43:23.276Z,11.52
2023-01-07T12:45:56.213Z,11.66
2023-01-07T12:48:40.943Z,11.64
2023-01-07T12:51:15.233Z,11.67
2023-01-07T12:53:53.648Z,11.68
2023-01-07T12:56:26.443Z,11.74
2023-01-07T12:59:01.753Z,11.77
2023-01-07T13:01:40.953Z,11.69
2023-01-07T13:04:33.883Z,11.71
2023-01-07T13:07:11.542Z,11.71
2023-01-07T13:09:59.596Z,11.71
2023-01-07T13:12:40.745Z,11.55
2023-01-07T13:15:30.799Z,11.60
2023-01-07T13:18:02.594Z,11.67
2023-01-07T13:20:43.516Z,11.62
2023-01-07T13:23:54.761Z,11.53
2023-01-07T13:26:56.869Z,11.39
2023-01-07T13:29:41.597Z,11.31
2023-01-07T13:32:15.191Z,11.25
2023-01-07T13:35:13.069Z,11.19
2023-01-07T13:37:58.300Z,11.13
2023-01-07T13:40:47.254Z,10.99
2023-01-07T13:43:50.452Z,11.03
2023-01-07T13:46:20.266Z,11.07
2023-01-07T13:48:51.974Z,11.09
2023-01-07T13:51:29.049Z,11.05
2023-01-07T13:53:55.810Z,11.12
2023-01-07T13:56:22.099Z,11.15
2023-01-07T13:58:50.875Z,11.06
2023-01-07T14:01:21.790Z,11.02
2023-01-07T14:04:03.229Z,10.97
2023-01-07T14:06:29.484Z,10.94
2023-01-07T14:08:59.068Z,10.84
2023-01-07T14:11:31.333Z,10.86
2023-01-07T14:14:14.587Z,10.85
2023-01-07T14:16:47.832Z,10.74
2023-01-07T14:19:32.993Z,10.73
2023-01-07T14:22:05.302Z,10.69
2023-01-07T14:25:00.652Z,10.67
2023-01-07T14:27:45.625Z,10.62
2023-01-07T14:30:23.338Z,10.59
2023-01-07T14:32:59.869Z,10.58
2023-01-07T14:35:36.382Z,10.61
2023-01-07T14:38:31.587Z,10.58
2023-01-07T14:41:04.070Z,10.56
2023-01-07T14:43:42.475Z,10.53
2023-01-07T14:46:09.442Z,10.51
2023-01-07T14:48:37.070Z,10.48
2023-01-07T14:51:25.897Z,10.47
2023-01-07T14:54:05.688Z,10.41
2023-01-07T14:56:58.962Z,10.36
2023-01-07T15:00:07.537Z,10.27
2023-01-07T15:03:15.657Z,10.20
2023-01-07T15:05:58.176Z,10.13
2023-01-07T15:08:28.074Z,10.11
2023-01-07T15:10:58.411Z,10.05
2023-01-07T15:13:25.644Z,9.98
2023-01-07T15:15:55.260Z,9.93
2023-01-07T15:18:21.986Z,9.84
2023-01-07T15:21:19.358Z,9.77
2023-01-07T15:24:16.240Z,9.66
2023-01-07T15:26:57.490Z,9.53
2023-01-07T15:29:54.806Z,9.43
2023-01-07T15:32:31.129Z,9.32
2023-01-07T15:34:58.021Z,9.21
2023-01-07T15:37:24.491Z,9.15
2023-01-07T15:39:58.691Z,9.10
2023-01-07T15:42:27.175Z,9.04
2023-01-07T15:44:56.217Z,8.97
2023-01-07T15:47:35.532Z,8.86
2023-01-07T15:50:30.735Z,8.75
2023-01-07T15:53:12.261Z,8.61
2023-01-07T15:55:49.119Z,8.51
2023-01-07T15:58:20.032Z,8.41
2023-01-07T16:00:52.018Z,8.32
2023-01-07T16:03:20.240Z,8.23
2023-01-07T16:05:47.496Z,8.17
2023-01-07T16:08:26.943Z,8.09
2023-01-07T16:11:05.465Z,7.96
2023-01-07T16:13:32.916Z,7.84
2023-01-07T16:16:01.110Z,7.75
2023-01-07T16:18:27.555Z,7.65
2023-01-07T16:21:04.014Z,7.57
2023-01-07T16:23:32.461Z,7.51
2023-01-07T16:26:14.587Z,7.46
2023-01-07T16:28:51.737Z,7.41
2023-01-07T16:31:22.142Z,7.31
2023-01-07T16:33:51.624Z,7.24
2023-01-07T16:36:22.301Z,7.17
2023-01-07T16:38:52.897Z,7.13
2023-01-07T16:41:22.590Z,7.08
2023-01-07T16:43:51.180Z,7.04
2023-01-07T16:46:26.940Z,7.00
2023-01-07T16:49:11.678Z,6.95
2023-01-07T16:51:51.956Z,6.88
2023-01-07T16:54:21.981Z,6.78
2023-01-07T16:56:54.393Z,6.72
2023-01-07T16:59:24.343Z,6.63
2023-01-07T17:01:50.887Z,6.57
2023-01-07T17:04:24.738Z,6.49
2023-01-07T17:06:51.593Z,6.41
2023-01-07T17:09:25.632Z,6.37
2023-01-07T17:11:53.149Z,6.32
2023-01-07T17:14:34.517Z,6.29
2023-01-07T17:17:06.245Z,6.25
2023-01-07T17:19:38.907Z,6.22
2023-01-07T17:22:27.915Z,6.18
2023-01-07T17:25:03.367Z,6.12
2023-01-07T17:27:31.192Z,6.08
2023-01-07T17:30:01.816Z,6.03
2023-01-07T17:32:28.222Z,5.96
2023-01-07T17:34:54.585Z,5.92
2023-01-07T17:37:20.969Z,5.82
2023-01-07T17:39:47.522Z,5.77
2023-01-07T17:42:23.511Z,5.70
2023-01-07T17:44:49.831Z,5.66
2023-01-07T17:47:16.191Z,5.62
2023-01-07T17:49:42.483Z,5.59
2023-01-07T17:52:09.517Z,5.57
2023-01-07T17:54:35.892Z,5.51
2023-01-07T17:57:02.186Z,5.51
2023-01-07T17:59:28.947Z,5.58
2023-01-07T18:01:56.697Z,5.64
2023-01-07T18:04:23.282Z,5.65
2023-01-07T18:06:49.631Z,5.64
2023-01-07T18:09:15.965Z,5.61
2023-01-07T18:11:45.169Z,5.54
2023-01-07T18:14:15.324Z,5.46
2023-01-07T18:16:41.940Z,5.36
2023-01-07T18:19:12.577Z,5.26
2023-01-07T18:21:39.049Z,5.17
2023-01-07T18:24:05.934Z,5.08
2023-01-07T18:26:32.319Z,5.06
2023-01-07T18:28:58.646Z,5.01
2023-01-07T18:31:24.995Z,4.93
2023-01-07T18:33:51.389Z,4.91
2023-01-07T18:36:17.818Z,4.90
2023-01-07T18:38:44.453Z,4.89
2023-01-07T18:41:10.929Z,4.86
2023-01-07T18:43:37.227Z,4.86
2023-01-07T18:46:08.266Z,4.86
2023-01-07T18:48:34.668Z,4.86
2023-01-07T18:51:00.960Z,4.85
2023-01-07T18:53:27.288Z,4.83
2023-01-07T18:55:59.280Z,4.80
2023-01-07T18:58:25.668Z,4.78
2023-01-07T19:00:52.235Z,4.76
2023-01-07T19:03:18.694Z,4.77
2023-01-07T19:05:45.018Z,4.77
2023-01-07T19:08:11.421Z,4.76
2023-01-07T19:10:41.186Z,4.75
2023-01-07T19:13:07.498Z,4.73
2023-01-07T19:15:33.810Z,4.72
2023-01-07T19:18:00.203Z,4.70
2023-01-07T19:20:26.551Z,4.69
2023-01-07T19:22:52.854Z,4.67
2023-01-07T19:25:19.190Z,4.66
2023-01-07T19:27:45.503Z,4.65
2023-01-07T19:30:12.231Z,4.62
2023-01-07T19:32:38.547Z,4.57
2023-01-07T19:35:05.359Z,4.52
2023-01-07T19:37:31.660Z,4.49
2023-01-07T19:39:57.992Z,4.46
2023-01-07T19:42:24.349Z,4.47
2023-01-07T19:44:50.650Z,4.50
2023-01-07T19:47:17.067Z,4.48
2023-01-07T19:49:43.388Z,4.50
2023-01-07T19:52:09.709Z,4.51
2023-01-07T19:54:36.059Z,4.53
2023-01-07T19:57:02.452Z,4.54
2023-01-07T19:59:28.767Z,4.51
2023-01-07T20:01:55.195Z,4.47
2023-01-07T20:04:21.700Z,4.47
2023-01-07T20:06:48.112Z,4.48
2023-01-07T20:09:14.410Z,4.46
2023-01-07T20:11:41.276Z,4.47
2023-01-07T20:14:07.585Z,4.50
2023-01-07T20:16:34.495Z,4.52
2023-01-07T20:19:00.959Z,4.52
2023-01-07T20:21:28.431Z,4.54
2023-01-07T20:23:55.054Z,4.52
2023-01-07T20:26:24.308Z,4.51
2023-01-07T20:28:50.877Z,4.49
2023-01-07T20:31:18.736Z,4.46
2023-01-07T20:33:45.359Z,4.47
2023-01-07T20:36:14.524Z,4.49
2023-01-07T20:38:42.144Z,4.48
2023-01-07T20:41:12.117Z,4.47
2023-01-07T20:43:38.418Z,4.47
2023-01-07T20:46:07.803Z,4.47
2023-01-07T20:48:34.991Z,4.44
2023-01-07T20:51:08.842Z,4.43
2023-01-07T20:53:36.668Z,4.42
2023-01-07T20:56:04.179Z,4.40
2023-01-07T20:58:32.203Z,4.37
2023-01-07T21:01:02.812Z,4.38
2023-01-07T21:03:29.345Z,4.36
2023-01-07T21:05:56.833Z,4.36
2023-01-07T21:08:23.632Z,4.35
2023-01-07T21:10:50.258Z,4.35
2023-01-07T21:13:16.545Z,4.34
2023-01-07T21:15:42.835Z,4.31
2023-01-07T21:18:09.154Z,4.28
2023-01-07T21:20:35.457Z,4.29
2023-01-07T21:23:01.853Z,4.28
2023-01-07T21:25:28.146Z,4.27
2023-01-07T21:27:54.417Z,4.28
2023-01-07T21:30:20.718Z,4.28
2023-01-07T21:32:47.039Z,4.25
2023-01-07T21:35:13.857Z,4.24
2023-01-07T21:37:40.270Z,4.24
2023-01-07T21:40:07.885Z,4.23
2023-01-07T21:42:35.321Z,4.24
2023-01-07T21:45:01.804Z,4.23
2023-01-07T21:47:28.178Z,4.22
2023-01-07T21:49:54.480Z,4.22
2023-01-07T21:52:20.784Z,4.19
2023-01-07T21:54:47.129Z,4.15
2023-01-07T21:57:13.532Z,4.12
2023-01-07T21:59:39.809Z,4.10
2023-01-07T22:02:06.256Z,4.12
2023-01-07T22:04:32.637Z,4.09
2023-01-07T22:06:58.952Z,4.08
2023-01-07T22:09:25.251Z,4.06
2023-01-07T22:11:51.632Z,4.05
2023-01-07T22:14:18.841Z,4.01
2023-01-07T22:16:47.517Z,4.03
2023-01-07T22:19:15.426Z,4.03
2023-01-07T22:21:41.738Z,4.02
2023-01-07T22:24:08.751Z,4.00
2023-01-07T22:26:35.184Z,3.95
2023-01-07T22:29:06.231Z,3.92
2023-01-07T22:31:34.507Z,3.92
2023-01-07T22:34:00.846Z,3.88
2023-01-07T22:36:45.351Z,3.85
2023-01-07T22:39:26.424Z,3.82
2023-01-07T22:41:56.254Z,3.81
2023-01-07T22:44:35.157Z,3.80
2023-01-07T22:47:03.271Z,3.80
2023-01-07T22:49:31.203Z,3.81
2023-01-07T22:51:57.502Z,3.79
2023-01-07T22:54:25.748Z,3.78
2023-01-07T22:56:52.139Z,3.77
2023-01-07T22:59:18.592Z,3.77
2023-01-07T23:01:44.870Z,3.70
2023-01-07T23:04:11.193Z,3.67
2023-01-07T23:06:37.638Z,3.66
2023-01-07T23:09:04.138Z,3.61
2023-01-07T23:11:31.907Z,3.59
2023-01-07T23:13:58.311Z,3.54
2023-01-07T23:16:24.720Z,3.51
2023-01-07T23:18:51.025Z,3.51
2023-01-07T23:21:17.414Z,3.49
2023-01-07T23:23:43.722Z,3.47
2023-01-07T23:26:13.943Z,3.42
2023-01-07T23:28:40.693Z,3.37
2023-01-07T23:31:07.409Z,3.34
2023-01-07T23:33:33.726Z,3.32
2023-01-07T23:36:05.317Z,3.28
2023-01-07T23:38:32.008Z,3.28
2023-01-07T23:41:01.786Z,3.28
2023-01-07T23:43:28.237Z,3.29
2023-01-07T23:45:57.207Z,3.29
2023-01-07T23:48:25.069Z,3.30
2023-01-07T23:50:52.031Z,3.24
2023-01-07T23:53:18.379Z,3.23
2023-01-07T23:55:55.307Z,3.21
2023-01-07T23:58:23.485Z,3.21
